Time;durP1;ratioP1;P1;durP2;ratioP2;P2;SDS_P1;SDS_P2;PMS_P1;PMS_P2;Temp;Humidity;BMP_temperature;BMP_pressure;BME280_temperature;BME280_humidity;BME280_pressure;Samples;Min_cycle;Max_cycle;Signal;HPM_P1;HPM_P2
2022/07/19 00:00:51;;;;;;;;;;;26.10;77.20;;;;;;5090817;28;19928;-63
2022/07/19 00:03:17;;;;;;;;;;;26.00;77.00;;;;;;5092548;28;20006;-63
2022/07/19 00:05:43;;;;;;;;;;;25.90;77.20;;;;;;5093374;28;20354;-62
2022/07/19 00:08:08;;;;;;;;;;;26.10;77.50;;;;;;5094068;28;19927;-62
2022/07/19 00:10:34;;;;;;;;;;;26.20;77.30;;;;;;5057012;28;19925;-62
2022/07/19 00:13:00;;;;;;;;;;;26.00;77.10;;;;;;5071049;28;19969;-62
2022/07/19 00:15:25;;;;;;;;;;;26.00;77.10;;;;;;5092089;28;19924;-63
2022/07/19 00:17:51;;;;;;;;;;;25.90;77.10;;;;;;5090672;28;20251;-62
2022/07/19 00:20:20;;;;;;;;;;;26.00;77.20;;;;;;5066391;28;19920;-64
2022/07/19 00:22:45;;;;;;;;;;;26.10;76.00;;;;;;5093311;28;20369;-62
2022/07/19 00:25:11;;;;;;;;;;;26.00;77.20;;;;;;5093151;28;19973;-62
2022/07/19 00:27:37;;;;;;;;;;;26.10;77.30;;;;;;5070917;28;19924;-64
2022/07/19 00:30:03;;;;;;;;;;;25.90;77.10;;;;;;5075648;28;19989;-62
2022/07/19 00:32:29;;;;;;;;;;;25.90;77.00;;;;;;5063684;28;20026;-62
2022/07/19 00:34:55;;;;;;;;;;;26.00;77.10;;;;;;5073846;28;20381;-62
2022/07/19 00:37:20;;;;;;;;;;;26.10;77.20;;;;;;5081382;28;19920;-62
2022/07/19 00:39:46;;;;;;;;;;;25.90;77.20;;;;;;5093686;28;20404;-62
2022/07/19 00:42:14;;;;;;;;;;;26.00;77.00;;;;;;5092623;28;19920;-62
2022/07/19 00:44:40;;;;;;;;;;;25.80;77.20;;;;;;5093609;28;19920;-62
2022/07/19 00:47:05;;;;;;;;;;;26.00;77.20;;;;;;5073844;28;19919;-62
2022/07/19 00:49:31;;;;;;;;;;;25.70;77.10;;;;;;5055454;28;19920;-62
2022/07/19 00:51:56;;;;;;;;;;;26.00;77.00;;;;;;5073804;28;19971;-63
2022/07/19 00:54:23;;;;;;;;;;;26.20;77.50;;;;;;5092441;28;19927;-63
2022/07/19 00:56:49;;;;;;;;;;;25.70;77.00;;;;;;5075878;28;19916;-62
2022/07/19 00:59:15;;;;;;;;;;;25.90;77.50;;;;;;5090103;28;19920;-62
2022/07/19 01:01:40;;;;;;;;;;;26.00;77.40;;;;;;5092611;28;19973;-62
2022/07/19 01:04:06;;;;;;;;;;;25.70;77.20;;;;;;5091309;28;19920;-62
2022/07/19 01:06:32;;;;;;;;;;;25.70;76.50;;;;;;5093043;28;19961;-63
2022/07/19 01:08:57;;;;;;;;;;;25.70;77.00;;;;;;5092430;28;19927;-62
2022/07/19 01:11:23;;;;;;;;;;;25.80;77.10;;;;;;5091880;28;19928;-62
2022/07/19 01:13:48;;;;;;;;;;;25.90;77.20;;;;;;5074493;28;19953;-62
2022/07/19 01:16:14;;;;;;;;;;;26.00;77.10;;;;;;5093640;28;19976;-62
2022/07/19 01:18:40;;;;;;;;;;;25.80;77.30;;;;;;5092953;28;20007;-64
2022/07/19 01:21:05;;;;;;;;;;;25.70;76.90;;;;;;5074146;28;19924;-62
2022/07/19 01:23:31;;;;;;;;;;;25.80;77.20;;;;;;5059237;28;19920;-62
2022/07/19 01:25:57;;;;;;;;;;;25.80;77.20;;;;;;5095559;28;19920;-62
2022/07/19 01:28:22;;;;;;;;;;;25.90;77.30;;;;;;5094987;28;19966;-62
2022/07/19 01:30:48;;;;;;;;;;;25.80;77.20;;;;;;5070997;28;19966;-62
2022/07/19 01:33:13;;;;;;;;;;;25.80;77.10;;;;;;5080284;28;19924;-62
2022/07/19 01:35:39;;;;;;;;;;;26.00;77.40;;;;;;5095545;28;20293;-62
2022/07/19 01:38:05;;;;;;;;;;;26.00;77.20;;;;;;5078661;28;19965;-62
2022/07/19 01:40:30;;;;;;;;;;;25.70;77.10;;;;;;5095875;28;19916;-64
2022/07/19 01:42:56;;;;;;;;;;;26.00;77.30;;;;;;5096065;28;20384;-62
2022/07/19 01:45:21;;;;;;;;;;;26.00;77.30;;;;;;5095758;28;20001;-64
2022/07/19 01:47:47;;;;;;;;;;;25.90;77.20;;;;;;5096023;28;19927;-62
2022/07/19 01:50:13;;;;;;;;;;;25.80;77.10;;;;;;5078519;28;19920;-62
2022/07/19 01:52:39;;;;;;;;;;;25.80;77.90;;;;;;5076323;28;19920;-62
2022/07/19 01:55:05;;;;;;;;;;;25.70;77.10;;;;;;5095632;28;19926;-62
2022/07/19 01:57:30;;;;;;;;;;;25.90;76.90;;;;;;5077347;28;19920;-62
2022/07/19 01:59:56;;;;;;;;;;;25.70;76.90;;;;;;5095371;28;19920;-64
2022/07/19 02:02:22;;;;;;;;;;;25.90;77.20;;;;;;5075496;28;19928;-63
2022/07/19 02:04:47;;;;;;;;;;;25.80;77.00;;;;;;5094864;28;19927;-63
2022/07/19 02:07:13;;;;;;;;;;;25.60;77.00;;;;;;5094938;28;20377;-62
2022/07/19 02:09:38;;;;;;;;;;;25.80;77.20;;;;;;5096525;28;20015;-62
2022/07/19 02:12:04;;;;;;;;;;;25.50;77.10;;;;;;5094532;28;19931;-62
2022/07/19 02:14:30;;;;;;;;;;;25.80;77.70;;;;;;5096151;28;19920;-62
2022/07/19 02:16:55;;;;;;;;;;;25.80;77.30;;;;;;5061334;28;19920;-62
2022/07/19 02:19:21;;;;;;;;;;;25.80;77.20;;;;;;5095495;28;19989;-62
2022/07/19 02:21:47;;;;;;;;;;;25.70;77.30;;;;;;5077888;28;19965;-64
2022/07/19 02:24:12;;;;;;;;;;;25.70;77.00;;;;;;5076731;28;19940;-62
2022/07/19 02:26:38;;;;;;;;;;;25.70;77.20;;;;;;5077116;28;19973;-63
2022/07/19 02:29:04;;;;;;;;;;;25.80;77.30;;;;;;5094404;28;20426;-62
2022/07/19 02:31:29;;;;;;;;;;;25.70;77.00;;;;;;5095812;28;19928;-62
2022/07/19 02:33:55;;;;;;;;;;;26.40;77.70;;;;;;5095016;28;19920;-62
2022/07/19 02:36:20;;;;;;;;;;;25.60;77.20;;;;;;5093227;28;19920;-62
2022/07/19 02:38:46;;;;;;;;;;;25.60;77.10;;;;;;5094670;28;19966;-62
2022/07/19 02:41:13;;;;;;;;;;;25.50;77.20;;;;;;5095052;28;19920;-62
2022/07/19 02:43:39;;;;;;;;;;;25.50;77.20;;;;;;5094768;28;19927;-62
2022/07/19 02:46:05;;;;;;;;;;;25.60;77.40;;;;;;5095677;28;19920;-61
2022/07/19 02:48:30;;;;;;;;;;;25.40;76.90;;;;;;5076875;28;20296;-62
2022/07/19 02:50:56;;;;;;;;;;;25.60;77.40;;;;;;5095019;28;20014;-62
2022/07/19 02:53:21;;;;;;;;;;;25.60;77.40;;;;;;5093165;28;19920;-62
2022/07/19 02:55:47;;;;;;;;;;;25.90;77.50;;;;;;5094658;28;19973;-62
2022/07/19 02:58:13;;;;;;;;;;;25.40;77.20;;;;;;5095132;28;19919;-62
2022/07/19 03:00:38;;;;;;;;;;;25.60;77.20;;;;;;5094138;28;19934;-62
2022/07/19 03:05:48;;;;;;;;;;;25.50;76.20;;;;;;5093953;28;19924;-62
2022/07/19 03:08:14;;;;;;;;;;;25.50;77.30;;;;;;5094489;28;19932;-62
2022/07/19 03:10:39;;;;;;;;;;;25.40;77.10;;;;;;5094759;28;19927;-63
2022/07/19 03:13:05;;;;;;;;;;;25.50;77.30;;;;;;5095187;28;19971;-62
2022/07/19 03:15:31;;;;;;;;;;;25.70;77.30;;;;;;5094308;28;19931;-62
2022/07/19 03:17:56;;;;;;;;;;;25.70;77.40;;;;;;5093233;28;19949;-63
2022/07/19 03:20:22;;;;;;;;;;;25.40;77.10;;;;;;5095156;28;19920;-63
2022/07/19 03:22:47;;;;;;;;;;;25.60;77.30;;;;;;5095392;28;20335;-63
2022/07/19 03:25:13;;;;;;;;;;;25.80;77.00;;;;;;5094669;28;19920;-63
2022/07/19 03:27:39;;;;;;;;;;;25.50;77.20;;;;;;5073396;28;19920;-62
2022/07/19 03:30:05;;;;;;;;;;;25.50;77.10;;;;;;5072720;28;20382;-62
2022/07/19 03:32:30;;;;;;;;;;;25.30;76.80;;;;;;5056999;28;20413;-62
2022/07/19 03:34:56;;;;;;;;;;;25.50;77.00;;;;;;5056449;28;19982;-62
2022/07/19 03:37:21;;;;;;;;;;;25.40;77.10;;;;;;5082445;28;20011;-63
2022/07/19 03:39:47;;;;;;;;;;;25.60;77.10;;;;;;5093494;28;19920;-62
2022/07/19 03:42:13;;;;;;;;;;;25.60;77.30;;;;;;5093328;28;19919;-62
2022/07/19 03:44:38;;;;;;;;;;;25.20;76.60;;;;;;5094156;28;19923;-62
2022/07/19 03:47:04;;;;;;;;;;;25.40;77.60;;;;;;5074852;28;19920;-62
2022/07/19 03:49:30;;;;;;;;;;;25.50;77.20;;;;;;5074725;28;20408;-70
2022/07/19 03:51:55;;;;;;;;;;;25.50;76.90;;;;;;5092842;28;19973;-73
2022/07/19 03:54:21;;;;;;;;;;;25.40;76.90;;;;;;5094590;28;19963;-72
2022/07/19 03:56:46;;;;;;;;;;;25.40;77.10;;;;;;5076026;28;20373;-72
2022/07/19 03:59:12;;;;;;;;;;;25.60;77.00;;;;;;5093246;28;19920;-72
2022/07/19 04:01:38;;;;;;;;;;;25.20;76.90;;;;;;5093048;28;19919;-73
2022/07/19 04:04:04;;;;;;;;;;;25.70;77.00;;;;;;5091189;28;20373;-72
2022/07/19 04:06:29;;;;;;;;;;;25.60;77.10;;;;;;5092677;28;19919;-71
2022/07/19 04:08:55;;;;;;;;;;;25.80;77.00;;;;;;5093282;28;19927;-72
2022/07/19 04:11:20;;;;;;;;;;;25.70;77.10;;;;;;5092779;28;20025;-72
2022/07/19 04:13:46;;;;;;;;;;;25.80;77.00;;;;;;5075919;28;19920;-72
2022/07/19 04:16:12;;;;;;;;;;;25.70;77.10;;;;;;5093479;28;19959;-73
2022/07/19 04:18:38;;;;;;;;;;;25.40;76.80;;;;;;5094212;28;19926;-72
2022/07/19 04:21:04;;;;;;;;;;;25.50;77.00;;;;;;5092975;28;19978;-71
2022/07/19 04:23:30;;;;;;;;;;;25.70;77.00;;;;;;5093774;28;19968;-73
2022/07/19 04:25:55;;;;;;;;;;;25.50;76.90;;;;;;5075596;28;20359;-71
2022/07/19 04:28:21;;;;;;;;;;;25.30;76.40;;;;;;5092686;28;19920;-72
2022/07/19 04:30:47;;;;;;;;;;;25.60;76.60;;;;;;5073043;28;20002;-72
2022/07/19 04:33:13;;;;;;;;;;;25.50;76.80;;;;;;5093653;28;19978;-70
2022/07/19 04:35:39;;;;;;;;;;;25.70;76.90;;;;;;5075922;28;20373;-72
2022/07/19 04:38:04;;;;;;;;;;;25.60;76.60;;;;;;5093968;28;19927;-72
2022/07/19 04:40:30;;;;;;;;;;;25.50;76.50;;;;;;5092833;28;20018;-72
2022/07/19 04:42:56;;;;;;;;;;;25.70;76.70;;;;;;5092573;28;19927;-71
2022/07/19 04:45:21;;;;;;;;;;;25.50;76.40;;;;;;5055367;28;19927;-72
2022/07/19 04:47:47;;;;;;;;;;;25.60;76.50;;;;;;5073529;28;19921;-73
2022/07/19 04:50:12;;;;;;;;;;;25.70;76.50;;;;;;5073736;28;19942;-73
2022/07/19 04:52:38;;;;;;;;;;;25.40;76.40;;;;;;5071471;28;20040;-73
2022/07/19 04:55:04;;;;;;;;;;;25.90;76.70;;;;;;5075080;28;19923;-71
2022/07/19 04:57:29;;;;;;;;;;;25.70;76.00;;;;;;5093497;28;20297;-68
2022/07/19 04:59:55;;;;;;;;;;;25.70;76.40;;;;;;5079589;28;20009;-73
2022/07/19 05:02:21;;;;;;;;;;;25.70;76.30;;;;;;5076120;28;20366;-71
2022/07/19 05:04:46;;;;;;;;;;;25.90;76.40;;;;;;5078954;28;19926;-68
2022/07/19 05:07:12;;;;;;;;;;;25.80;76.50;;;;;;5078412;28;20381;-73
2022/07/19 05:09:37;;;;;;;;;;;26.10;76.50;;;;;;5079131;28;20275;-73
2022/07/19 05:12:07;;;;;;;;;;;25.80;75.90;;;;;;5096454;28;19924;-73
2022/07/19 05:14:33;;;;;;;;;;;26.00;75.90;;;;;;5098078;28;19927;-74
2022/07/19 05:16:58;;;;;;;;;;;26.10;76.10;;;;;;5096142;28;19924;-74
2022/07/19 05:19:24;;;;;;;;;;;26.10;75.60;;;;;;5097532;28;19920;-73
2022/07/19 05:21:50;;;;;;;;;;;26.30;75.40;;;;;;5063741;28;19920;-73
2022/07/19 05:24:16;;;;;;;;;;;26.10;74.90;;;;;;5078805;28;20310;-72
2022/07/19 05:26:41;;;;;;;;;;;26.20;74.70;;;;;;5068707;28;19920;-73
2022/07/19 05:29:07;;;;;;;;;;;26.30;74.60;;;;;;5096016;28;19920;-73
2022/07/19 05:31:33;;;;;;;;;;;26.60;74.80;;;;;;5078898;28;19927;-73
2022/07/19 05:33:58;;;;;;;;;;;26.40;74.20;;;;;;5067433;28;20003;-72
2022/07/19 05:36:24;;;;;;;;;;;26.30;74.00;;;;;;5060989;28;19919;-71
2022/07/19 05:38:50;;;;;;;;;;;26.30;73.40;;;;;;5077639;28;20338;-70
2022/07/19 05:41:16;;;;;;;;;;;26.60;74.20;;;;;;5062012;28;20365;-72
2022/07/19 05:43:43;;;;;;;;;;;26.50;74.10;;;;;;5072866;28;19981;-67
2022/07/19 05:46:09;;;;;;;;;;;26.50;74.10;;;;;;5061082;28;19934;-67
2022/07/19 05:48:34;;;;;;;;;;;26.40;73.80;;;;;;5077434;28;20019;-70
2022/07/19 05:51:00;;;;;;;;;;;26.70;73.90;;;;;;5095884;28;19942;-70
2022/07/19 05:53:26;;;;;;;;;;;26.60;73.50;;;;;;5078501;28;20277;-73
2022/07/19 05:55:51;;;;;;;;;;;26.90;73.60;;;;;;5061820;28;19920;-71
2022/07/19 05:58:20;;;;;;;;;;;26.70;73.50;;;;;;5075032;28;19920;-66
2022/07/19 06:01:46;;;;;;;;;;;26.60;72.20;;;;;;5077210;28;19920;-70
2022/07/19 06:03:40;;;;;;;;;;;26.90;73.10;;;;;;5052013;28;19920;-73
2022/07/19 06:06:06;;;;;;;;;;;27.00;73.20;;;;;;5060696;28;19972;-67
2022/07/19 06:08:32;;;;;;;;;;;26.90;73.00;;;;;;5076037;28;19928;-71
2022/07/19 06:10:58;;;;;;;;;;;27.00;73.00;;;;;;5095166;28;19943;-74
2022/07/19 06:13:23;;;;;;;;;;;27.10;73.00;;;;;;5095328;28;19924;-66
2022/07/19 06:15:49;;;;;;;;;;;27.30;72.80;;;;;;5078064;28;19923;-62
2022/07/19 06:18:15;;;;;;;;;;;27.60;73.20;;;;;;5095506;28;20010;-68
2022/07/19 06:20:41;;;;;;;;;;;27.30;73.10;;;;;;5076219;28;19920;-62
2022/07/19 06:23:06;;;;;;;;;;;27.20;73.00;;;;;;5096306;28;19920;-62
2022/07/19 06:25:32;;;;;;;;;;;27.50;73.20;;;;;;5096541;28;20354;-62
2022/07/19 06:27:58;;;;;;;;;;;27.50;73.60;;;;;;5094648;28;20336;-63
2022/07/19 06:30:23;;;;;;;;;;;27.30;73.20;;;;;;5089101;28;19970;-62
2022/07/19 06:32:49;;;;;;;;;;;27.30;73.30;;;;;;5094973;28;20044;-62
2022/07/19 06:35:14;;;;;;;;;;;27.50;73.40;;;;;;5095130;28;19966;-62
2022/07/19 06:37:40;;;;;;;;;;;27.60;73.60;;;;;;5058570;28;19919;-65
2022/07/19 06:40:06;;;;;;;;;;;27.60;73.70;;;;;;5094511;28;20258;-66
2022/07/19 06:42:32;;;;;;;;;;;27.70;73.50;;;;;;5094882;28;19927;-66
2022/07/19 06:45:01;;;;;;;;;;;27.60;73.60;;;;;;5089465;28;19971;-66
2022/07/19 06:47:27;;;;;;;;;;;27.80;74.00;;;;;;5081193;28;19920;-73
2022/07/19 06:49:53;;;;;;;;;;;27.50;73.80;;;;;;5090717;28;19924;-66
2022/07/19 06:52:19;;;;;;;;;;;27.70;73.80;;;;;;5084921;28;19999;-65
2022/07/19 06:54:44;;;;;;;;;;;27.70;73.70;;;;;;5062873;28;19920;-63
2022/07/19 06:57:10;;;;;;;;;;;27.70;73.60;;;;;;5088377;28;20064;-62
2022/07/19 06:59:36;;;;;;;;;;;27.90;73.70;;;;;;5095584;28;19924;-62
2022/07/19 07:02:03;;;;;;;;;;;28.30;74.10;;;;;;5081889;28;19927;-63
2022/07/19 07:04:28;;;;;;;;;;;27.90;73.50;;;;;;5080486;28;19921;-62
2022/07/19 07:06:54;;;;;;;;;;;28.10;73.70;;;;;;5075365;28;19920;-62
2022/07/19 07:09:20;;;;;;;;;;;28.30;73.70;;;;;;5088396;28;19923;-63
2022/07/19 07:11:45;;;;;;;;;;;28.20;73.60;;;;;;5092963;28;19919;-63
2022/07/19 07:14:11;;;;;;;;;;;28.10;73.20;;;;;;5066765;28;19921;-62
2022/07/19 07:16:39;;;;;;;;;;;28.30;73.30;;;;;;5056671;28;19920;-62
2022/07/19 07:19:05;;;;;;;;;;;28.10;72.20;;;;;;5074330;28;19946;-63
2022/07/19 07:21:34;;;;;;;;;;;28.60;73.00;;;;;;5076889;28;20389;-62
2022/07/19 07:24:04;;;;;;;;;;;28.50;73.20;;;;;;5091144;28;19920;-63
2022/07/19 07:26:29;;;;;;;;;;;28.40;71.80;;;;;;5093323;28;20424;-66
2022/07/19 07:28:55;;;;;;;;;;;28.40;72.70;;;;;;5094454;28;19920;-66
2022/07/19 07:31:21;;;;;;;;;;;28.30;72.40;;;;;;5058204;28;19924;-71
2022/07/19 07:33:46;;;;;;;;;;;28.60;72.30;;;;;;5093696;28;19948;-71
2022/07/19 07:36:12;;;;;;;;;;;28.60;72.40;;;;;;5094623;28;20018;-62
2022/07/19 07:38:37;;;;;;;;;;;28.90;72.30;;;;;;5094512;28;19973;-62
2022/07/19 07:41:03;;;;;;;;;;;28.50;71.70;;;;;;5059164;28;19924;-62
2022/07/19 07:43:29;;;;;;;;;;;28.80;72.00;;;;;;5094251;28;19920;-63
2022/07/19 07:45:55;;;;;;;;;;;28.70;71.50;;;;;;5093314;28;19920;-64
2022/07/19 07:48:20;;;;;;;;;;;28.90;71.50;;;;;;5093748;28;19923;-63
2022/07/19 07:50:46;;;;;;;;;;;29.10;71.60;;;;;;5093645;28;19923;-63
2022/07/19 07:53:11;;;;;;;;;;;28.90;71.00;;;;;;5076494;28;20006;-72
2022/07/19 07:55:39;;;;;;;;;;;29.10;71.40;;;;;;5093715;28;20377;-63
2022/07/19 07:58:09;;;;;;;;;;;29.10;71.40;;;;;;5094433;28;19965;-63
2022/07/19 08:00:39;;;;;;;;;;;29.00;70.00;;;;;;5076058;28;20285;-64
2022/07/19 08:03:06;;;;;;;;;;;29.30;70.10;;;;;;5093688;28;20319;-63
2022/07/19 08:05:32;;;;;;;;;;;29.00;71.20;;;;;;5076033;28;20002;-63
2022/07/19 08:07:58;;;;;;;;;;;29.30;70.40;;;;;;5076246;28;19920;-63
2022/07/19 08:10:25;;;;;;;;;;;29.10;71.10;;;;;;5094357;28;19924;-63
2022/07/19 08:12:51;;;;;;;;;;;29.20;71.30;;;;;;5075911;28;19981;-63
2022/07/19 08:15:17;;;;;;;;;;;29.40;71.10;;;;;;5094328;28;19920;-63
2022/07/19 08:17:42;;;;;;;;;;;29.60;71.20;;;;;;5094074;28;19961;-63
2022/07/19 08:20:08;;;;;;;;;;;29.10;70.90;;;;;;5075856;28;20286;-63
2022/07/19 08:22:33;;;;;;;;;;;29.60;70.90;;;;;;5075605;28;19924;-63
2022/07/19 08:24:59;;;;;;;;;;;29.60;71.80;;;;;;5093662;28;19927;-64
2022/07/19 08:27:25;;;;;;;;;;;29.40;70.80;;;;;;5093700;28;19920;-62
2022/07/19 08:29:50;;;;;;;;;;;28.90;70.60;;;;;;5093781;28;19927;-63
2022/07/19 08:32:16;;;;;;;;;;;29.50;70.70;;;;;;5076588;28;20296;-63
2022/07/19 08:34:42;;;;;;;;;;;29.50;70.80;;;;;;5064898;28;19920;-63
2022/07/19 08:37:07;;;;;;;;;;;29.40;70.70;;;;;;5081944;28;19920;-63
2022/07/19 08:39:33;;;;;;;;;;;29.40;70.60;;;;;;5100505;28;19924;-63
2022/07/19 08:41:58;;;;;;;;;;;29.80;71.10;;;;;;5100775;28;19919;-63
2022/07/19 08:44:24;;;;;;;;;;;29.80;70.90;;;;;;5068187;28;19924;-62
2022/07/19 08:46:50;;;;;;;;;;;29.60;70.90;;;;;;5075012;28;19920;-63
2022/07/19 08:49:15;;;;;;;;;;;29.70;70.70;;;;;;5082297;28;19920;-63
2022/07/19 08:51:41;;;;;;;;;;;29.70;71.00;;;;;;5082461;28;19967;-63
2022/07/19 08:54:07;;;;;;;;;;;29.70;71.00;;;;;;5082236;28;20429;-63
2022/07/19 08:59:17;;;;;;;;;;;29.60;69.00;;;;;;5083902;28;19920;-69
2022/07/19 09:01:42;;;;;;;;;;;29.90;70.10;;;;;;5100545;28;19920;-71
2022/07/19 09:04:15;;;;;;;;;;;30.20;69.90;;;;;;5099490;28;19919;-63
2022/07/19 09:06:42;;;;;;;;;;;29.80;67.00;;;;;;5099089;28;20015;-63
2022/07/19 09:09:07;;;;;;;;;;;29.80;67.70;;;;;;5100206;28;19920;-64
2022/07/19 09:11:37;;;;;;;;;;;29.80;67.40;;;;;;5082052;28;20499;-64
2022/07/19 09:14:03;;;;;;;;;;;29.70;66.10;;;;;;5099260;28;19920;-62
2022/07/19 09:16:42;;;;;;;;;;;30.20;67.20;;;;;;5099600;28;19920;-62
2022/07/19 09:19:08;;;;;;;;;;;30.20;66.50;;;;;;5081712;28;19920;-62
2022/07/19 09:21:49;;;;;;;;;;;30.10;66.30;;;;;;5076790;28;19947;-64
2022/07/19 09:24:15;;;;;;;;;;;30.00;66.10;;;;;;5099840;28;19927;-63
2022/07/19 09:26:53;;;;;;;;;;;30.30;66.50;;;;;;5099146;28;20008;-63
2022/07/19 09:29:19;;;;;;;;;;;30.20;66.40;;;;;;5099481;28;19926;-63
2022/07/19 09:31:57;;;;;;;;;;;30.00;65.60;;;;;;5090552;28;20349;-72
2022/07/19 09:34:26;;;;;;;;;;;30.30;66.30;;;;;;5095582;28;19920;-66
2022/07/19 09:37:06;;;;;;;;;;;30.20;64.70;;;;;;5082463;28;19920;-65
2022/07/19 09:39:32;;;;;;;;;;;30.30;66.50;;;;;;5082129;28;19965;-65
2022/07/19 09:41:58;;;;;;;;;;;30.40;66.40;;;;;;5081685;28;19924;-72
2022/07/19 09:44:23;;;;;;;;;;;30.20;66.00;;;;;;5098036;28;19969;-72
2022/07/19 09:46:50;;;;;;;;;;;30.30;66.00;;;;;;5097011;28;19920;-62
2022/07/19 09:49:16;;;;;;;;;;;30.10;65.70;;;;;;5078546;28;19945;-62
2022/07/19 09:51:46;;;;;;;;;;;30.30;65.60;;;;;;5096588;28;19927;-62
2022/07/19 09:54:12;;;;;;;;;;;30.30;64.20;;;;;;5077972;28;19920;-62
2022/07/19 09:56:38;;;;;;;;;;;30.40;66.00;;;;;;5096474;28;19920;-62
2022/07/19 09:59:04;;;;;;;;;;;30.50;66.10;;;;;;5078314;28;19928;-62
2022/07/19 10:01:30;;;;;;;;;;;30.30;65.90;;;;;;5097299;28;19920;-62
2022/07/19 10:03:57;;;;;;;;;;;30.50;65.40;;;;;;5078212;28;19920;-62
2022/07/19 10:06:23;;;;;;;;;;;30.50;65.60;;;;;;5078056;28;19920;-62
2022/07/19 10:08:50;;;;;;;;;;;30.60;65.30;;;;;;5078293;28;19931;-62
2022/07/19 10:11:16;;;;;;;;;;;30.50;65.20;;;;;;5096867;28;19959;-62
2022/07/19 10:13:41;;;;;;;;;;;30.20;64.40;;;;;;5078026;28;20000;-64
2022/07/19 10:16:07;;;;;;;;;;;30.60;64.70;;;;;;5093633;28;19920;-71
2022/07/19 10:18:36;;;;;;;;;;;30.50;64.40;;;;;;5074333;28;19947;-62
2022/07/19 10:21:02;;;;;;;;;;;30.60;64.90;;;;;;5076126;28;19921;-63
2022/07/19 10:23:31;;;;;;;;;;;30.80;64.50;;;;;;5074626;28;20374;-63
2022/07/19 10:25:57;;;;;;;;;;;30.70;64.40;;;;;;5090226;28;19920;-63
2022/07/19 10:28:29;;;;;;;;;;;30.60;64.30;;;;;;5077695;28;19920;-63
2022/07/19 10:30:56;;;;;;;;;;;30.70;63.60;;;;;;5095858;28;19973;-63
2022/07/19 10:33:26;;;;;;;;;;;30.60;64.70;;;;;;5092064;28;20293;-63
2022/07/19 10:35:51;;;;;;;;;;;30.30;63.20;;;;;;5093379;28;19927;-62
2022/07/19 10:38:17;;;;;;;;;;;30.70;64.40;;;;;;5091341;28;19994;-62
2022/07/19 10:40:46;;;;;;;;;;;30.80;64.50;;;;;;5095560;28;19924;-62
2022/07/19 10:43:12;;;;;;;;;;;30.70;63.40;;;;;;5095304;28;20374;-62
2022/07/19 10:45:38;;;;;;;;;;;30.80;64.60;;;;;;5094743;28;19968;-62
2022/07/19 10:48:05;;;;;;;;;;;30.60;64.70;;;;;;5092941;28;20078;-74
2022/07/19 10:50:44;;;;;;;;;;;30.80;64.70;;;;;;5095645;28;20026;-74
2022/07/19 10:53:09;;;;;;;;;;;30.70;63.60;;;;;;5095823;28;20315;-63
2022/07/19 10:55:36;;;;;;;;;;;30.60;63.70;;;;;;5076747;28;19920;-63
2022/07/19 10:58:05;;;;;;;;;;;30.60;64.30;;;;;;5083894;28;20259;-62
2022/07/19 11:00:30;;;;;;;;;;;30.60;63.00;;;;;;5072825;28;20336;-62
2022/07/19 11:03:16;;;;;;;;;;;30.70;64.30;;;;;;5075411;28;19921;-62
2022/07/19 11:05:45;;;;;;;;;;;30.60;62.70;;;;;;5078900;28;20008;-64
2022/07/19 11:08:10;;;;;;;;;;;30.90;62.80;;;;;;5094229;28;19926;-65
2022/07/19 11:10:36;;;;;;;;;;;30.80;63.80;;;;;;5095327;28;20011;-62
2022/07/19 11:13:02;;;;;;;;;;;30.60;63.60;;;;;;5095367;28;20408;-62
2022/07/19 11:15:28;;;;;;;;;;;30.80;63.60;;;;;;5095325;28;19927;-62
2022/07/19 11:18:13;;;;;;;;;;;30.90;63.50;;;;;;5094670;28;19924;-64
2022/07/19 11:20:39;;;;;;;;;;;30.80;63.60;;;;;;5092621;28;20331;-62
2022/07/19 11:23:05;;;;;;;;;;;30.80;63.30;;;;;;5095027;28;19924;-62
2022/07/19 11:25:31;;;;;;;;;;;30.70;63.30;;;;;;5095061;28;19920;-63
2022/07/19 11:27:57;;;;;;;;;;;30.80;63.70;;;;;;5076612;28;19920;-62
2022/07/19 11:30:23;;;;;;;;;;;31.00;64.20;;;;;;5090252;28;19927;-62
2022/07/19 11:32:52;;;;;;;;;;;30.70;63.60;;;;;;5094327;28;19973;-62
2022/07/19 11:35:18;;;;;;;;;;;30.80;62.40;;;;;;5094568;28;20401;-62
2022/07/19 11:37:44;;;;;;;;;;;30.70;63.60;;;;;;5094762;28;19990;-62
2022/07/19 11:40:10;;;;;;;;;;;30.80;63.60;;;;;;5093200;28;20274;-62
2022/07/19 11:42:36;;;;;;;;;;;30.90;64.00;;;;;;5094446;28;19923;-64
2022/07/19 11:45:10;;;;;;;;;;;30.90;63.40;;;;;;5087694;28;19920;-65
2022/07/19 11:47:36;;;;;;;;;;;31.10;62.30;;;;;;5089928;28;19920;-67
2022/07/19 11:50:05;;;;;;;;;;;30.80;63.10;;;;;;5083914;28;19920;-66
2022/07/19 11:52:41;;;;;;;;;;;31.00;61.90;;;;;;5082863;28;19942;-65
2022/07/19 11:55:07;;;;;;;;;;;30.80;62.00;;;;;;5080020;28;19924;-63
2022/07/19 11:57:32;;;;;;;;;;;30.80;61.90;;;;;;5060481;28;20010;-65
2022/07/19 11:59:58;;;;;;;;;;;30.90;62.70;;;;;;5081260;28;19920;-64
2022/07/19 12:02:24;;;;;;;;;;;31.20;62.90;;;;;;5091659;28;19927;-65
2022/07/19 12:04:49;;;;;;;;;;;31.30;63.00;;;;;;5094324;28;20015;-63
2022/07/19 12:07:15;;;;;;;;;;;31.00;62.80;;;;;;5085403;28;19920;-74
2022/07/19 12:09:42;;;;;;;;;;;30.90;63.00;;;;;;5094094;28;19966;-63
2022/07/19 12:12:12;;;;;;;;;;;31.30;63.00;;;;;;5075433;28;20285;-62
2022/07/19 12:14:40;;;;;;;;;;;30.90;61.40;;;;;;5093891;28;19926;-62
2022/07/19 12:17:11;;;;;;;;;;;30.90;62.50;;;;;;5093320;28;20400;-62
2022/07/19 12:19:41;;;;;;;;;;;31.00;61.20;;;;;;5075930;28;19971;-62
2022/07/19 12:22:24;;;;;;;;;;;31.30;61.20;;;;;;5093255;28;19927;-62
2022/07/19 12:24:50;;;;;;;;;;;31.10;62.50;;;;;;5092935;28;20380;-74
2022/07/19 12:27:16;;;;;;;;;;;31.40;62.40;;;;;;5092079;28;19920;-62
2022/07/19 12:29:46;;;;;;;;;;;31.10;62.30;;;;;;5093345;28;19920;-63
2022/07/19 12:32:13;;;;;;;;;;;31.10;60.70;;;;;;5093697;28;20339;-68
2022/07/19 12:34:48;;;;;;;;;;;31.30;61.90;;;;;;5075749;28;20011;-62
2022/07/19 12:37:21;;;;;;;;;;;31.30;61.20;;;;;;5086863;28;19920;-62
2022/07/19 12:40:06;;;;;;;;;;;31.10;61.00;;;;;;5075584;28;19920;-63
2022/07/19 12:42:35;;;;;;;;;;;31.00;61.10;;;;;;5093755;28;19920;-62
2022/07/19 12:45:01;;;;;;;;;;;31.10;61.30;;;;;;5093797;28;19924;-62
2022/07/19 12:47:27;;;;;;;;;;;31.20;62.70;;;;;;5091876;28;19943;-62
2022/07/19 12:49:53;;;;;;;;;;;31.40;62.20;;;;;;5092654;28;19928;-62
2022/07/19 12:52:18;;;;;;;;;;;31.00;61.80;;;;;;5093661;28;19951;-62
2022/07/19 12:54:44;;;;;;;;;;;31.40;62.00;;;;;;5093446;28;19920;-62
2022/07/19 12:57:09;;;;;;;;;;;31.30;61.90;;;;;;5093127;28;20042;-62
2022/07/19 12:59:41;;;;;;;;;;;31.40;62.10;;;;;;5093247;28;20385;-62
2022/07/19 13:02:11;;;;;;;;;;;31.40;61.00;;;;;;5075356;28;19920;-63
2022/07/19 13:04:37;;;;;;;;;;;31.50;60.90;;;;;;5092864;28;19949;-64
2022/07/19 13:07:03;;;;;;;;;;;31.40;62.00;;;;;;5092330;28;19975;-62
2022/07/19 13:09:28;;;;;;;;;;;31.40;62.00;;;;;;5075304;28;19927;-62
2022/07/19 13:11:54;;;;;;;;;;;31.30;61.80;;;;;;5093265;28;19966;-61
2022/07/19 13:14:19;;;;;;;;;;;31.40;62.10;;;;;;5074959;28;19926;-62
2022/07/19 13:16:45;;;;;;;;;;;31.20;62.10;;;;;;5093486;28;19970;-62
2022/07/19 13:19:11;;;;;;;;;;;31.10;62.00;;;;;;5094278;28;19967;-62
2022/07/19 13:21:36;;;;;;;;;;;31.30;61.80;;;;;;5096840;28;20373;-61
2022/07/19 13:24:02;;;;;;;;;;;31.30;61.80;;;;;;5097186;28;19924;-64
2022/07/19 13:26:28;;;;;;;;;;;31.20;61.40;;;;;;5096272;28;19920;-62
2022/07/19 13:28:53;;;;;;;;;;;31.20;61.40;;;;;;5096866;28;20033;-62
2022/07/19 13:31:19;;;;;;;;;;;31.00;61.20;;;;;;5096721;28;20002;-62
2022/07/19 13:33:45;;;;;;;;;;;31.10;61.40;;;;;;5096125;28;19927;-62
2022/07/19 13:36:10;;;;;;;;;;;31.30;61.40;;;;;;5088183;28;19920;-67
2022/07/19 13:38:38;;;;;;;;;;;31.00;61.60;;;;;;5096169;28;19924;-62
2022/07/19 13:41:04;;;;;;;;;;;30.90;61.50;;;;;;5096168;28;19920;-62
2022/07/19 13:43:30;;;;;;;;;;;31.10;62.10;;;;;;5096857;28;20335;-61
2022/07/19 13:45:56;;;;;;;;;;;31.20;61.60;;;;;;5090946;28;19920;-61
2022/07/19 13:48:21;;;;;;;;;;;31.10;61.70;;;;;;5078794;28;19978;-62
2022/07/19 13:50:47;;;;;;;;;;;30.90;61.40;;;;;;5089848;28;19924;-67
2022/07/19 13:53:13;;;;;;;;;;;31.20;61.30;;;;;;5078440;28;19923;-62
2022/07/19 13:55:38;;;;;;;;;;;31.00;60.90;;;;;;5095582;28;19920;-62
2022/07/19 13:58:04;;;;;;;;;;;31.30;61.70;;;;;;5096302;28;20323;-64
2022/07/19 14:00:30;;;;;;;;;;;31.20;61.10;;;;;;5095731;28;20441;-65
2022/07/19 14:02:55;;;;;;;;;;;31.30;60.90;;;;;;5096601;28;19927;-65
2022/07/19 14:05:21;;;;;;;;;;;31.30;61.10;;;;;;5096235;28;19924;-62
2022/07/19 14:07:47;;;;;;;;;;;31.30;61.10;;;;;;5094967;28;19928;-62
2022/07/19 14:10:12;;;;;;;;;;;30.90;60.60;;;;;;5096162;28;19930;-62
2022/07/19 14:12:38;;;;;;;;;;;31.00;60.90;;;;;;5096215;28;20014;-62
2022/07/19 14:15:04;;;;;;;;;;;31.10;61.10;;;;;;5078132;28;19920;-63
2022/07/19 14:17:30;;;;;;;;;;;31.20;61.20;;;;;;5095843;28;19935;-64